Deanshanger, United Kingdom
Current Conditions -  °F | °C
As of 2:20 PM on Friday 19 Dec 2014 (Local Time) from EGTC Reporting Station
Few Clouds Few Clouds  
Wind Chill: 39°   Ceiling: Unl
Heat Index: 46°   Visibility: 6mi
Dew Point: 37°   Wind: 20mph
Humidity: 71%   Direction: 270°W
Pressure: 29.97"   Gusts: 31mph
Location:  52.05°N, 0.89°W
Report Text: EGTC 191420Z 27017G27KT 9999 FEW032 08/03 Q1015
Loading
Personal Weather Stations






























Interactive Weather Map New forecast layout! Learn more

10-Day Weather Forecast

Advertisements
Track Severe Weather on mobile